sensor_id;sensor_type;location;lat;lon;timestamp;P1;durP1;ratioP1;P2;durP2;ratioP2
16189;SDS011;41754;51.498;7.540;2023-05-10T00:01:19;3.25;;;2.38;;
16189;SDS011;41754;51.498;7.540;2023-05-10T00:03:47;2.33;;;2.13;;
16189;SDS011;41754;51.498;7.540;2023-05-10T00:06:15;2.65;;;2.45;;
16189;SDS011;41754;51.498;7.540;2023-05-10T00:08:45;4.18;;;2.47;;
16189;SDS011;41754;51.498;7.540;2023-05-10T00:11:13;2.53;;;2.30;;
16189;SDS011;41754;51.498;7.540;2023-05-10T00:13:41;4.03;;;2.30;;
16189;SDS011;41754;51.498;7.540;2023-05-10T00:16:08;2.80;;;2.55;;
16189;SDS011;41754;51.498;7.540;2023-05-10T00:18:38;2.60;;;2.40;;
16189;SDS011;41754;51.498;7.540;2023-05-10T00:21:06;3.03;;;2.67;;
16189;SDS011;41754;51.498;7.540;2023-05-10T00:23:34;3.00;;;2.67;;
16189;SDS011;41754;51.498;7.540;2023-05-10T00:26:03;3.42;;;3.13;;
16189;SDS011;41754;51.498;7.540;2023-05-10T00:28:31;3.50;;;3.10;;
16189;SDS011;41754;51.498;7.540;2023-05-10T00:30:59;3.47;;;3.17;;
16189;SDS011;41754;51.498;7.540;2023-05-10T00:33:28;3.25;;;2.95;;
16189;SDS011;41754;51.498;7.540;2023-05-10T00:35:56;3.40;;;3.10;;
16189;SDS011;41754;51.498;7.540;2023-05-10T00:38:24;3.58;;;3.20;;
16189;SDS011;41754;51.498;7.540;2023-05-10T00:40:52;4.22;;;3.83;;
16189;SDS011;41754;51.498;7.540;2023-05-10T00:43:28;4.38;;;4.07;;
16189;SDS011;41754;51.498;7.540;2023-05-10T00:45:56;4.32;;;4.03;;
16189;SDS011;41754;51.498;7.540;2023-05-10T00:48:25;4.85;;;3.95;;
16189;SDS011;41754;51.498;7.540;2023-05-10T00:50:53;5.80;;;4.28;;
16189;SDS011;41754;51.498;7.540;2023-05-10T00:53:21;4.50;;;4.10;;
16189;SDS011;41754;51.498;7.540;2023-05-10T00:55:49;5.10;;;4.60;;
16189;SDS011;41754;51.498;7.540;2023-05-10T00:58:18;5.38;;;4.82;;
16189;SDS011;41754;51.498;7.540;2023-05-10T01:00:47;6.00;;;4.95;;
16189;SDS011;41754;51.498;7.540;2023-05-10T01:03:16;5.80;;;5.20;;
16189;SDS011;41754;51.498;7.540;2023-05-10T01:05:44;7.07;;;5.53;;
16189;SDS011;41754;51.498;7.540;2023-05-10T01:08:12;5.97;;;5.07;;
16189;SDS011;41754;51.498;7.540;2023-05-10T01:10:41;6.65;;;5.95;;
16189;SDS011;41754;51.498;7.540;2023-05-10T01:13:10;6.30;;;5.70;;
16189;SDS011;41754;51.498;7.540;2023-05-10T01:15:38;5.85;;;5.30;;
16189;SDS011;41754;51.498;7.540;2023-05-10T01:18:09;6.53;;;5.78;;
16189;SDS011;41754;51.498;7.540;2023-05-10T01:20:40;6.28;;;5.65;;
16189;SDS011;41754;51.498;7.540;2023-05-10T01:26:15;10.50;;;7.53;;
16189;SDS011;41754;51.498;7.540;2023-05-10T01:28:58;8.00;;;7.07;;
16189;SDS011;41754;51.498;7.540;2023-05-10T01:32:04;7.57;;;6.88;;
16189;SDS011;41754;51.498;7.540;2023-05-10T01:34:52;8.13;;;7.05;;
16189;SDS011;41754;51.498;7.540;2023-05-10T01:37:31;8.60;;;7.70;;
16189;SDS011;41754;51.498;7.540;2023-05-10T01:40:12;8.85;;;7.80;;
16189;SDS011;41754;51.498;7.540;2023-05-10T01:42:47;8.75;;;7.57;;
16189;SDS011;41754;51.498;7.540;2023-05-10T01:45:20;7.88;;;7.07;;
16189;SDS011;41754;51.498;7.540;2023-05-10T01:47:57;9.38;;;8.43;;
16189;SDS011;41754;51.498;7.540;2023-05-10T01:50:30;11.48;;;8.88;;
16189;SDS011;41754;51.498;7.540;2023-05-10T01:53:00;10.57;;;8.90;;
16189;SDS011;41754;51.498;7.540;2023-05-10T01:55:30;11.30;;;9.52;;
16189;SDS011;41754;51.498;7.540;2023-05-10T01:58:02;10.80;;;9.05;;
16189;SDS011;41754;51.498;7.540;2023-05-10T02:00:33;11.48;;;9.70;;
16189;SDS011;41754;51.498;7.540;2023-05-10T02:03:04;10.20;;;8.80;;
16189;SDS011;41754;51.498;7.540;2023-05-10T02:05:38;11.82;;;9.48;;
16189;SDS011;41754;51.498;7.540;2023-05-10T02:08:07;10.95;;;9.82;;
16189;SDS011;41754;51.498;7.540;2023-05-10T02:10:36;11.48;;;9.40;;
16189;SDS011;41754;51.498;7.540;2023-05-10T02:13:07;9.25;;;8.35;;
16189;SDS011;41754;51.498;7.540;2023-05-10T02:15:37;10.43;;;9.32;;
16189;SDS011;41754;51.498;7.540;2023-05-10T02:18:08;10.43;;;9.30;;
16189;SDS011;41754;51.498;7.540;2023-05-10T02:20:38;11.73;;;8.55;;
16189;SDS011;41754;51.498;7.540;2023-05-10T02:23:06;10.32;;;8.68;;
16189;SDS011;41754;51.498;7.540;2023-05-10T02:25:37;10.05;;;8.55;;
16189;SDS011;41754;51.498;7.540;2023-05-10T02:28:06;9.73;;;8.73;;
16189;SDS011;41754;51.498;7.540;2023-05-10T02:30:35;9.55;;;7.63;;
16189;SDS011;41754;51.498;7.540;2023-05-10T02:33:04;7.65;;;6.78;;
16189;SDS011;41754;51.498;7.540;2023-05-10T02:35:35;8.68;;;7.78;;
16189;SDS011;41754;51.498;7.540;2023-05-10T02:38:05;8.00;;;7.20;;
16189;SDS011;41754;51.498;7.540;2023-05-10T02:40:35;8.32;;;6.72;;
16189;SDS011;41754;51.498;7.540;2023-05-10T02:43:04;7.05;;;5.93;;
16189;SDS011;41754;51.498;7.540;2023-05-10T02:45:33;8.98;;;6.50;;
16189;SDS011;41754;51.498;7.540;2023-05-10T02:48:05;7.78;;;6.43;;
16189;SDS011;41754;51.498;7.540;2023-05-10T02:50:35;6.45;;;5.85;;
16189;SDS011;41754;51.498;7.540;2023-05-10T02:53:06;6.68;;;5.65;;
16189;SDS011;41754;51.498;7.540;2023-05-10T02:55:38;6.82;;;6.00;;
16189;SDS011;41754;51.498;7.540;2023-05-10T02:58:08;6.40;;;5.72;;
16189;SDS011;41754;51.498;7.540;2023-05-10T03:00:36;6.07;;;5.47;;
16189;SDS011;41754;51.498;7.540;2023-05-10T03:03:04;4.78;;;4.30;;
16189;SDS011;41754;51.498;7.540;2023-05-10T03:05:34;3.78;;;3.47;;
16189;SDS011;41754;51.498;7.540;2023-05-10T03:08:03;3.38;;;3.08;;
16189;SDS011;41754;51.498;7.540;2023-05-10T03:10:33;3.38;;;3.08;;
16189;SDS011;41754;51.498;7.540;2023-05-10T03:13:11;4.00;;;3.60;;
16189;SDS011;41754;51.498;7.540;2023-05-10T03:15:47;4.15;;;2.92;;
16189;SDS011;41754;51.498;7.540;2023-05-10T03:18:23;3.25;;;2.97;;
16189;SDS011;41754;51.498;7.540;2023-05-10T03:20:59;3.42;;;3.13;;
16189;SDS011;41754;51.498;7.540;2023-05-10T03:23:34;4.18;;;3.72;;
16189;SDS011;41754;51.498;7.540;2023-05-10T03:26:03;3.55;;;3.25;;
16189;SDS011;41754;51.498;7.540;2023-05-10T03:28:33;3.65;;;3.15;;
16189;SDS011;41754;51.498;7.540;2023-05-10T03:31:03;3.70;;;3.40;;
16189;SDS011;41754;51.498;7.540;2023-05-10T03:33:33;4.72;;;3.58;;
16189;SDS011;41754;51.498;7.540;2023-05-10T03:36:03;5.07;;;3.53;;
16189;SDS011;41754;51.498;7.540;2023-05-10T03:38:31;4.63;;;4.07;;
16189;SDS011;41754;51.498;7.540;2023-05-10T03:41:00;3.53;;;3.22;;
16189;SDS011;41754;51.498;7.540;2023-05-10T03:43:28;4.55;;;3.90;;
16189;SDS011;41754;51.498;7.540;2023-05-10T03:45:56;4.07;;;3.67;;
16189;SDS011;41754;51.498;7.540;2023-05-10T03:48:24;4.63;;;3.90;;
16189;SDS011;41754;51.498;7.540;2023-05-10T03:50:52;4.47;;;4.07;;
16189;SDS011;41754;51.498;7.540;2023-05-10T03:53:21;6.05;;;4.88;;
16189;SDS011;41754;51.498;7.540;2023-05-10T03:55:50;5.18;;;3.83;;
16189;SDS011;41754;51.498;7.540;2023-05-10T03:58:18;4.95;;;4.38;;
16189;SDS011;41754;51.498;7.540;2023-05-10T04:00:46;5.43;;;3.88;;
16189;SDS011;41754;51.498;7.540;2023-05-10T04:03:14;4.18;;;3.75;;
16189;SDS011;41754;51.498;7.540;2023-05-10T04:05:42;4.07;;;3.53;;
16189;SDS011;41754;51.498;7.540;2023-05-10T04:08:11;6.15;;;5.38;;
16189;SDS011;41754;51.498;7.540;2023-05-10T04:10:40;6.07;;;5.20;;
16189;SDS011;41754;51.498;7.540;2023-05-10T04:13:08;8.68;;;7.78;;
16189;SDS011;41754;51.498;7.540;2023-05-10T04:15:36;7.60;;;6.78;;
16189;SDS011;41754;51.498;7.540;2023-05-10T04:18:04;11.60;;;9.23;;
16189;SDS011;41754;51.498;7.540;2023-05-10T04:20:34;12.07;;;9.30;;
16189;SDS011;41754;51.498;7.540;2023-05-10T04:23:02;11.75;;;9.73;;
16189;SDS011;41754;51.498;7.540;2023-05-10T04:25:30;13.40;;;11.05;;
16189;SDS011;41754;51.498;7.540;2023-05-10T04:28:02;19.35;;;13.15;;
16189;SDS011;41754;51.498;7.540;2023-05-10T04:30:31;18.70;;;13.30;;
16189;SDS011;41754;51.498;7.540;2023-05-10T04:32:58;16.42;;;13.18;;
16189;SDS011;41754;51.498;7.540;2023-05-10T04:35:28;16.58;;;13.35;;
16189;SDS011;41754;51.498;7.540;2023-05-10T04:37:56;17.85;;;13.40;;
16189;SDS011;41754;51.498;7.540;2023-05-10T04:40:24;20.10;;;14.65;;
16189;SDS011;41754;51.498;7.540;2023-05-10T04:42:52;18.40;;;13.90;;
16189;SDS011;41754;51.498;7.540;2023-05-10T04:45:21;19.83;;;13.65;;
16189;SDS011;41754;51.498;7.540;2023-05-10T04:47:49;19.08;;;14.15;;
16189;SDS011;41754;51.498;7.540;2023-05-10T04:50:17;19.33;;;13.60;;
16189;SDS011;41754;51.498;7.540;2023-05-10T04:52:45;16.08;;;12.75;;
16189;SDS011;41754;51.498;7.540;2023-05-10T04:55:13;17.42;;;12.93;;
16189;SDS011;41754;51.498;7.540;2023-05-10T04:57:41;19.75;;;14.18;;
16189;SDS011;41754;51.498;7.540;2023-05-10T05:00:10;18.23;;;13.50;;
16189;SDS011;41754;51.498;7.540;2023-05-10T05:02:41;17.30;;;13.55;;
16189;SDS011;41754;51.498;7.540;2023-05-10T05:05:10;16.08;;;13.60;;
16189;SDS011;41754;51.498;7.540;2023-05-10T05:07:38;19.23;;;14.10;;
16189;SDS011;41754;51.498;7.540;2023-05-10T05:10:06;17.85;;;14.85;;
16189;SDS011;41754;51.498;7.540;2023-05-10T05:12:36;19.00;;;14.10;;
16189;SDS011;41754;51.498;7.540;2023-05-10T05:15:04;18.25;;;14.82;;
16189;SDS011;41754;51.498;7.540;2023-05-10T05:17:35;21.30;;;15.95;;
16189;SDS011;41754;51.498;7.540;2023-05-10T05:20:05;19.90;;;15.80;;
16189;SDS011;41754;51.498;7.540;2023-05-10T05:22:35;20.95;;;16.17;;
16189;SDS011;41754;51.498;7.540;2023-05-10T05:25:03;20.98;;;16.55;;
16189;SDS011;41754;51.498;7.540;2023-05-10T05:27:32;22.98;;;17.48;;
16189;SDS011;41754;51.498;7.540;2023-05-10T05:30:00;20.95;;;16.95;;
16189;SDS011;41754;51.498;7.540;2023-05-10T05:32:28;23.05;;;16.95;;
16189;SDS011;41754;51.498;7.540;2023-05-10T05:34:57;25.30;;;18.95;;
16189;SDS011;41754;51.498;7.540;2023-05-10T05:37:27;27.20;;;19.38;;
16189;SDS011;41754;51.498;7.540;2023-05-10T05:40:04;26.52;;;20.95;;
16189;SDS011;41754;51.498;7.540;2023-05-10T05:42:32;28.67;;;21.33;;
16189;SDS011;41754;51.498;7.540;2023-05-10T05:45:03;28.65;;;20.98;;
16189;SDS011;41754;51.498;7.540;2023-05-10T05:47:31;28.77;;;21.65;;
16189;SDS011;41754;51.498;7.540;2023-05-10T05:49:59;28.90;;;21.92;;
16189;SDS011;41754;51.498;7.540;2023-05-10T05:52:28;31.13;;;22.45;;
16189;SDS011;41754;51.498;7.540;2023-05-10T05:54:58;31.00;;;22.40;;
16189;SDS011;41754;51.498;7.540;2023-05-10T05:57:26;33.53;;;24.17;;
16189;SDS011;41754;51.498;7.540;2023-05-10T05:59:54;35.83;;;24.92;;
16189;SDS011;41754;51.498;7.540;2023-05-10T06:02:22;35.28;;;26.00;;
16189;SDS011;41754;51.498;7.540;2023-05-10T06:04:50;31.42;;;23.85;;
16189;SDS011;41754;51.498;7.540;2023-05-10T06:07:18;32.63;;;24.88;;
16189;SDS011;41754;51.498;7.540;2023-05-10T06:09:47;35.25;;;24.10;;
16189;SDS011;41754;51.498;7.540;2023-05-10T06:12:16;35.78;;;26.45;;
16189;SDS011;41754;51.498;7.540;2023-05-10T06:14:43;39.28;;;26.80;;
16189;SDS011;41754;51.498;7.540;2023-05-10T06:17:11;35.70;;;25.67;;
16189;SDS011;41754;51.498;7.540;2023-05-10T06:19:39;38.10;;;25.92;;
16189;SDS011;41754;51.498;7.540;2023-05-10T06:22:07;35.65;;;26.27;;
16189;SDS011;41754;51.498;7.540;2023-05-10T06:24:35;33.50;;;24.92;;
16189;SDS011;41754;51.498;7.540;2023-05-10T06:27:05;33.67;;;24.90;;
16189;SDS011;41754;51.498;7.540;2023-05-10T06:29:33;33.53;;;25.42;;
16189;SDS011;41754;51.498;7.540;2023-05-10T06:32:01;33.95;;;26.05;;
16189;SDS011;41754;51.498;7.540;2023-05-10T06:34:29;32.47;;;25.60;;
16189;SDS011;41754;51.498;7.540;2023-05-10T06:36:57;37.92;;;26.13;;
16189;SDS011;41754;51.498;7.540;2023-05-10T06:39:25;35.63;;;26.17;;
16189;SDS011;41754;51.498;7.540;2023-05-10T06:41:53;35.30;;;27.45;;
16189;SDS011;41754;51.498;7.540;2023-05-10T06:44:23;38.83;;;27.48;;
16189;SDS011;41754;51.498;7.540;2023-05-10T06:46:51;32.40;;;25.20;;
16189;SDS011;41754;51.498;7.540;2023-05-10T06:49:20;35.03;;;26.15;;
16189;SDS011;41754;51.498;7.540;2023-05-10T06:51:48;34.17;;;25.40;;
16189;SDS011;41754;51.498;7.540;2023-05-10T06:54:15;35.20;;;26.48;;
16189;SDS011;41754;51.498;7.540;2023-05-10T06:56:44;38.35;;;28.08;;
16189;SDS011;41754;51.498;7.540;2023-05-10T06:59:12;35.88;;;27.02;;
16189;SDS011;41754;51.498;7.540;2023-05-10T07:01:43;33.00;;;26.17;;
16189;SDS011;41754;51.498;7.540;2023-05-10T07:04:11;36.83;;;28.10;;
16189;SDS011;41754;51.498;7.540;2023-05-10T07:06:39;37.15;;;27.42;;
16189;SDS011;41754;51.498;7.540;2023-05-10T07:09:07;36.40;;;28.33;;
16189;SDS011;41754;51.498;7.540;2023-05-10T07:11:35;37.97;;;29.15;;
16189;SDS011;41754;51.498;7.540;2023-05-10T07:14:03;38.30;;;29.52;;
16189;SDS011;41754;51.498;7.540;2023-05-10T07:16:31;37.10;;;28.10;;
16189;SDS011;41754;51.498;7.540;2023-05-10T07:19:01;33.80;;;25.63;;
16189;SDS011;41754;51.498;7.540;2023-05-10T07:21:29;35.42;;;26.50;;
16189;SDS011;41754;51.498;7.540;2023-05-10T07:23:57;35.45;;;27.73;;
16189;SDS011;41754;51.498;7.540;2023-05-10T07:26:26;38.97;;;28.33;;
16189;SDS011;41754;51.498;7.540;2023-05-10T07:28:54;35.13;;;26.42;;
16189;SDS011;41754;51.498;7.540;2023-05-10T07:31:23;35.03;;;28.60;;
16189;SDS011;41754;51.498;7.540;2023-05-10T07:33:51;34.33;;;27.40;;
16189;SDS011;41754;51.498;7.540;2023-05-10T07:36:20;31.48;;;27.02;;
16189;SDS011;41754;51.498;7.540;2023-05-10T07:38:48;31.15;;;26.13;;
16189;SDS011;41754;51.498;7.540;2023-05-10T07:41:16;31.77;;;26.50;;
16189;SDS011;41754;51.498;7.540;2023-05-10T07:43:44;32.20;;;25.58;;
16189;SDS011;41754;51.498;7.540;2023-05-10T07:46:12;27.98;;;25.00;;
16189;SDS011;41754;51.498;7.540;2023-05-10T07:48:40;27.75;;;24.27;;
16189;SDS011;41754;51.498;7.540;2023-05-10T07:51:08;29.40;;;25.60;;
16189;SDS011;41754;51.498;7.540;2023-05-10T07:53:38;25.17;;;22.40;;
16189;SDS011;41754;51.498;7.540;2023-05-10T07:56:20;24.05;;;21.50;;
16189;SDS011;41754;51.498;7.540;2023-05-10T07:58:49;24.38;;;21.23;;
16189;SDS011;41754;51.498;7.540;2023-05-10T08:01:17;22.52;;;20.02;;
16189;SDS011;41754;51.498;7.540;2023-05-10T08:03:45;22.60;;;19.92;;
16189;SDS011;41754;51.498;7.540;2023-05-10T08:06:13;20.42;;;18.25;;
16189;SDS011;41754;51.498;7.540;2023-05-10T08:08:43;21.30;;;18.92;;
16189;SDS011;41754;51.498;7.540;2023-05-10T08:11:15;19.42;;;17.38;;
16189;SDS011;41754;51.498;7.540;2023-05-10T08:13:44;18.27;;;16.20;;
16189;SDS011;41754;51.498;7.540;2023-05-10T08:16:12;22.35;;;17.92;;
16189;SDS011;41754;51.498;7.540;2023-05-10T08:18:40;21.98;;;18.20;;
16189;SDS011;41754;51.498;7.540;2023-05-10T08:21:08;24.15;;;19.50;;
16189;SDS011;41754;51.498;7.540;2023-05-10T08:23:37;23.98;;;19.08;;
16189;SDS011;41754;51.498;7.540;2023-05-10T08:26:06;23.67;;;19.15;;
16189;SDS011;41754;51.498;7.540;2023-05-10T08:28:34;21.52;;;17.80;;
16189;SDS011;41754;51.498;7.540;2023-05-10T08:31:04;21.92;;;18.85;;
16189;SDS011;41754;51.498;7.540;2023-05-10T08:33:32;24.80;;;19.00;;
16189;SDS011;41754;51.498;7.540;2023-05-10T08:36:00;22.45;;;19.08;;
16189;SDS011;41754;51.498;7.540;2023-05-10T08:38:28;23.65;;;20.17;;
16189;SDS011;41754;51.498;7.540;2023-05-10T08:40:57;25.13;;;19.58;;
16189;SDS011;41754;51.498;7.540;2023-05-10T08:43:28;21.92;;;19.48;;
16189;SDS011;41754;51.498;7.540;2023-05-10T08:45:58;25.33;;;21.90;;
16189;SDS011;41754;51.498;7.540;2023-05-10T08:48:28;24.15;;;21.55;;
16189;SDS011;41754;51.498;7.540;2023-05-10T08:50:57;25.48;;;21.98;;
16189;SDS011;41754;51.498;7.540;2023-05-10T08:53:28;27.58;;;23.67;;
16189;SDS011;41754;51.498;7.540;2023-05-10T08:55:58;20.40;;;18.20;;
16189;SDS011;41754;51.498;7.540;2023-05-10T08:58:27;19.30;;;16.58;;
16189;SDS011;41754;51.498;7.540;2023-05-10T09:00:56;15.48;;;12.57;;
16189;SDS011;41754;51.498;7.540;2023-05-10T09:03:24;14.88;;;12.55;;
16189;SDS011;41754;51.498;7.540;2023-05-10T09:05:52;14.05;;;11.82;;
16189;SDS011;41754;51.498;7.540;2023-05-10T09:08:22;14.93;;;11.50;;
16189;SDS011;41754;51.498;7.540;2023-05-10T09:10:52;14.63;;;10.63;;
16189;SDS011;41754;51.498;7.540;2023-05-10T09:13:21;12.85;;;10.65;;
16189;SDS011;41754;51.498;7.540;2023-05-10T09:15:51;11.40;;;9.48;;
16189;SDS011;41754;51.498;7.540;2023-05-10T09:18:20;14.10;;;10.82;;
16189;SDS011;41754;51.498;7.540;2023-05-10T09:20:48;13.52;;;11.23;;
16189;SDS011;41754;51.498;7.540;2023-05-10T09:23:16;16.15;;;11.85;;
16189;SDS011;41754;51.498;7.540;2023-05-10T09:25:44;18.00;;;14.15;;
16189;SDS011;41754;51.498;7.540;2023-05-10T09:28:12;17.55;;;14.70;;
16189;SDS011;41754;51.498;7.540;2023-05-10T09:30:40;18.55;;;15.52;;
16189;SDS011;41754;51.498;7.540;2023-05-10T09:33:10;20.85;;;14.82;;
16189;SDS011;41754;51.498;7.540;2023-05-10T09:35:38;18.25;;;14.35;;
16189;SDS011;41754;51.498;7.540;2023-05-10T09:38:06;21.10;;;15.82;;
16189;SDS011;41754;51.498;7.540;2023-05-10T09:40:35;19.67;;;14.95;;
16189;SDS011;41754;51.498;7.540;2023-05-10T09:43:04;17.13;;;14.82;;
16189;SDS011;41754;51.498;7.540;2023-05-10T09:45:34;18.33;;;14.55;;
16189;SDS011;41754;51.498;7.540;2023-05-10T09:48:04;18.38;;;14.93;;
16189;SDS011;41754;51.498;7.540;2023-05-10T09:50:34;17.67;;;14.05;;
16189;SDS011;41754;51.498;7.540;2023-05-10T09:53:03;20.02;;;14.65;;
16189;SDS011;41754;51.498;7.540;2023-05-10T09:55:38;19.40;;;14.73;;
16189;SDS011;41754;51.498;7.540;2023-05-10T09:58:07;19.30;;;15.13;;
16189;SDS011;41754;51.498;7.540;2023-05-10T10:00:38;20.50;;;15.13;;
16189;SDS011;41754;51.498;7.540;2023-05-10T10:03:07;17.80;;;14.95;;
16189;SDS011;41754;51.498;7.540;2023-05-10T10:05:42;18.08;;;13.65;;
16189;SDS011;41754;51.498;7.540;2023-05-10T10:08:11;13.77;;;12.10;;
16189;SDS011;41754;51.498;7.540;2023-05-10T10:10:40;12.05;;;10.75;;
16189;SDS011;41754;51.498;7.540;2023-05-10T10:13:11;12.43;;;11.13;;
16189;SDS011;41754;51.498;7.540;2023-05-10T10:15:40;12.52;;;10.15;;
16189;SDS011;41754;51.498;7.540;2023-05-10T10:18:11;11.70;;;10.60;;
16189;SDS011;41754;51.498;7.540;2023-05-10T10:20:42;10.68;;;9.13;;
16189;SDS011;41754;51.498;7.540;2023-05-10T10:23:10;10.85;;;8.43;;
16189;SDS011;41754;51.498;7.540;2023-05-10T10:25:42;9.18;;;8.27;;
16189;SDS011;41754;51.498;7.540;2023-05-10T10:28:14;8.32;;;7.20;;
16189;SDS011;41754;51.498;7.540;2023-05-10T10:30:53;9.90;;;7.47;;
16189;SDS011;41754;51.498;7.540;2023-05-10T10:33:39;8.55;;;7.63;;
16189;SDS011;41754;51.498;7.540;2023-05-10T10:36:19;10.30;;;7.75;;
16189;SDS011;41754;51.498;7.540;2023-05-10T10:38:57;8.50;;;7.60;;
16189;SDS011;41754;51.498;7.540;2023-05-10T10:41:31;9.43;;;6.65;;
16189;SDS011;41754;51.498;7.540;2023-05-10T10:47:03;6.63;;;5.60;;
16189;SDS011;41754;51.498;7.540;2023-05-10T10:49:38;7.13;;;6.20;;
16189;SDS011;41754;51.498;7.540;2023-05-10T10:52:24;8.15;;;6.88;;
16189;SDS011;41754;51.498;7.540;2023-05-10T10:54:59;9.93;;;7.43;;
16189;SDS011;41754;51.498;7.540;2023-05-10T10:57:31;9.63;;;7.28;;
16189;SDS011;41754;51.498;7.540;2023-05-10T11:03:03;9.07;;;7.18;;
16189;SDS011;41754;51.498;7.540;2023-05-10T11:05:37;8.45;;;7.15;;
16189;SDS011;41754;51.498;7.540;2023-05-10T11:08:12;8.98;;;7.63;;
16189;SDS011;41754;51.498;7.540;2023-05-10T11:11:02;11.95;;;8.30;;
16189;SDS011;41754;51.498;7.540;2023-05-10T11:13:34;11.25;;;9.30;;
16189;SDS011;41754;51.498;7.540;2023-05-10T11:16:12;19.63;;;13.13;;
16189;SDS011;41754;51.498;7.540;2023-05-10T11:18:51;16.23;;;13.77;;
16189;SDS011;41754;51.498;7.540;2023-05-10T11:21:21;16.25;;;13.80;;
16189;SDS011;41754;51.498;7.540;2023-05-10T11:23:52;18.75;;;14.35;;
16189;SDS011;41754;51.498;7.540;2023-05-10T11:26:22;17.35;;;13.50;;
16189;SDS011;41754;51.498;7.540;2023-05-10T11:28:53;14.88;;;13.27;;
16189;SDS011;41754;51.498;7.540;2023-05-10T11:31:22;14.75;;;11.73;;
16189;SDS011;41754;51.498;7.540;2023-05-10T11:33:53;15.13;;;11.27;;
16189;SDS011;41754;51.498;7.540;2023-05-10T11:36:23;12.93;;;10.90;;
16189;SDS011;41754;51.498;7.540;2023-05-10T11:38:54;14.57;;;10.23;;
16189;SDS011;41754;51.498;7.540;2023-05-10T11:41:23;13.63;;;9.85;;
16189;SDS011;41754;51.498;7.540;2023-05-10T11:43:52;13.00;;;9.77;;
16189;SDS011;41754;51.498;7.540;2023-05-10T11:46:22;12.85;;;11.02;;
16189;SDS011;41754;51.498;7.540;2023-05-10T11:48:52;12.90;;;10.45;;
16189;SDS011;41754;51.498;7.540;2023-05-10T11:51:21;13.98;;;9.45;;
16189;SDS011;41754;51.498;7.540;2023-05-10T11:53:54;12.88;;;9.15;;
16189;SDS011;41754;51.498;7.540;2023-05-10T11:56:22;12.35;;;11.02;;
16189;SDS011;41754;51.498;7.540;2023-05-10T11:58:52;14.48;;;11.93;;
16189;SDS011;41754;51.498;7.540;2023-05-10T12:01:21;11.50;;;10.15;;
16189;SDS011;41754;51.498;7.540;2023-05-10T12:03:50;12.82;;;11.63;;
16189;SDS011;41754;51.498;7.540;2023-05-10T12:06:20;12.75;;;11.43;;
16189;SDS011;41754;51.498;7.540;2023-05-10T12:08:49;14.90;;;12.68;;
16189;SDS011;41754;51.498;7.540;2023-05-10T12:11:20;13.20;;;11.82;;
16189;SDS011;41754;51.498;7.540;2023-05-10T12:13:52;13.98;;;11.95;;
16189;SDS011;41754;51.498;7.540;2023-05-10T12:16:22;13.15;;;11.95;;
16189;SDS011;41754;51.498;7.540;2023-05-10T12:18:52;14.45;;;11.55;;
16189;SDS011;41754;51.498;7.540;2023-05-10T12:21:23;14.93;;;11.75;;
16189;SDS011;41754;51.498;7.540;2023-05-10T12:23:52;13.02;;;11.55;;
16189;SDS011;41754;51.498;7.540;2023-05-10T12:26:23;13.88;;;12.38;;
16189;SDS011;41754;51.498;7.540;2023-05-10T12:28:52;12.15;;;10.68;;
16189;SDS011;41754;51.498;7.540;2023-05-10T12:31:20;13.43;;;12.02;;
16189;SDS011;41754;51.498;7.540;2023-05-10T12:33:49;12.20;;;10.77;;
16189;SDS011;41754;51.498;7.540;2023-05-10T12:36:16;13.02;;;11.52;;
16189;SDS011;41754;51.498;7.540;2023-05-10T12:38:59;11.43;;;10.25;;
16189;SDS011;41754;51.498;7.540;2023-05-10T12:41:32;11.55;;;10.32;;
16189;SDS011;41754;51.498;7.540;2023-05-10T12:44:01;11.40;;;9.20;;
16189;SDS011;41754;51.498;7.540;2023-05-10T12:46:29;9.80;;;8.80;;
16189;SDS011;41754;51.498;7.540;2023-05-10T12:48:57;10.77;;;9.65;;
16189;SDS011;41754;51.498;7.540;2023-05-10T12:51:34;10.50;;;9.32;;
16189;SDS011;41754;51.498;7.540;2023-05-10T12:54:02;10.15;;;9.13;;
16189;SDS011;41754;51.498;7.540;2023-05-10T12:56:30;11.75;;;8.95;;
16189;SDS011;41754;51.498;7.540;2023-05-10T12:59:00;10.80;;;9.43;;
16189;SDS011;41754;51.498;7.540;2023-05-10T13:01:28;13.15;;;8.57;;
16189;SDS011;41754;51.498;7.540;2023-05-10T13:03:56;12.07;;;8.93;;
16189;SDS011;41754;51.498;7.540;2023-05-10T13:06:24;10.95;;;8.20;;
16189;SDS011;41754;51.498;7.540;2023-05-10T13:08:52;10.82;;;9.13;;
16189;SDS011;41754;51.498;7.540;2023-05-10T13:11:19;13.73;;;9.90;;
16189;SDS011;41754;51.498;7.540;2023-05-10T13:13:48;9.32;;;8.20;;
16189;SDS011;41754;51.498;7.540;2023-05-10T13:16:17;9.20;;;8.25;;
16189;SDS011;41754;51.498;7.540;2023-05-10T13:18:45;7.90;;;7.15;;
16189;SDS011;41754;51.498;7.540;2023-05-10T13:21:13;8.90;;;7.70;;
16189;SDS011;41754;51.498;7.540;2023-05-10T13:23:41;7.82;;;7.10;;
16189;SDS011;41754;51.498;7.540;2023-05-10T13:26:09;8.75;;;7.05;;
16189;SDS011;41754;51.498;7.540;2023-05-10T13:28:37;8.13;;;7.32;;
16189;SDS011;41754;51.498;7.540;2023-05-10T13:31:05;9.05;;;8.15;;
16189;SDS011;41754;51.498;7.540;2023-05-10T13:33:34;10.32;;;9.32;;
16189;SDS011;41754;51.498;7.540;2023-05-10T13:36:02;8.02;;;7.32;;
16189;SDS011;41754;51.498;7.540;2023-05-10T13:38:30;8.07;;;7.38;;
16189;SDS011;41754;51.498;7.540;2023-05-10T13:40:58;9.02;;;7.32;;
16189;SDS011;41754;51.498;7.540;2023-05-10T13:43:26;8.63;;;7.72;;
16189;SDS011;41754;51.498;7.540;2023-05-10T13:45:54;8.40;;;7.53;;
16189;SDS011;41754;51.498;7.540;2023-05-10T13:48:22;9.00;;;7.60;;
16189;SDS011;41754;51.498;7.540;2023-05-10T13:50:51;8.38;;;7.45;;
16189;SDS011;41754;51.498;7.540;2023-05-10T13:53:19;8.50;;;7.60;;
16189;SDS011;41754;51.498;7.540;2023-05-10T13:55:48;9.63;;;7.45;;
16189;SDS011;41754;51.498;7.540;2023-05-10T13:58:16;8.25;;;7.50;;
16189;SDS011;41754;51.498;7.540;2023-05-10T14:00:44;9.13;;;8.10;;
16189;SDS011;41754;51.498;7.540;2023-05-10T14:03:12;9.93;;;8.43;;
16189;SDS011;41754;51.498;7.540;2023-05-10T14:05:40;9.30;;;8.40;;
16189;SDS011;41754;51.498;7.540;2023-05-10T14:08:09;9.20;;;8.38;;
16189;SDS011;41754;51.498;7.540;2023-05-10T14:10:39;9.18;;;7.28;;
16189;SDS011;41754;51.498;7.540;2023-05-10T14:13:07;9.40;;;8.52;;
16189;SDS011;41754;51.498;7.540;2023-05-10T14:15:35;11.35;;;10.15;;
16189;SDS011;41754;51.498;7.540;2023-05-10T14:18:03;10.00;;;9.10;;
16189;SDS011;41754;51.498;7.540;2023-05-10T14:20:31;10.25;;;9.25;;
16189;SDS011;41754;51.498;7.540;2023-05-10T14:23:00;9.63;;;8.73;;
16189;SDS011;41754;51.498;7.540;2023-05-10T14:25:29;8.27;;;7.53;;
16189;SDS011;41754;51.498;7.540;2023-05-10T14:27:57;9.48;;;8.50;;
16189;SDS011;41754;51.498;7.540;2023-05-10T14:30:25;7.95;;;7.30;;
16189;SDS011;41754;51.498;7.540;2023-05-10T14:32:53;6.78;;;6.18;;
16189;SDS011;41754;51.498;7.540;2023-05-10T14:35:21;7.07;;;6.47;;
16189;SDS011;41754;51.498;7.540;2023-05-10T14:37:50;7.95;;;7.25;;
16189;SDS011;41754;51.498;7.540;2023-05-10T14:40:18;7.32;;;6.65;;
16189;SDS011;41754;51.498;7.540;2023-05-10T14:42:49;6.53;;;5.93;;
16189;SDS011;41754;51.498;7.540;2023-05-10T14:45:19;6.50;;;5.88;;
16189;SDS011;41754;51.498;7.540;2023-05-10T14:47:47;6.82;;;6.07;;
16189;SDS011;41754;51.498;7.540;2023-05-10T14:50:16;7.38;;;6.78;;
16189;SDS011;41754;51.498;7.540;2023-05-10T14:53:00;6.80;;;6.20;;
16189;SDS011;41754;51.498;7.540;2023-05-10T14:55:28;6.30;;;5.78;;
16189;SDS011;41754;51.498;7.540;2023-05-10T14:57:57;6.22;;;5.72;;